EGLCLSGG

Guest
Details From EGLC - London City
To LSGG - Geneva
Flight Number -
Tags Generated
Created
Modified
Stats Distance 396 nm / 734 km
Max Altitude 0 ft / 0 m
Waypoints 3
Social Downloads 1
Likes 0
Share VATSIM

Download

Looking for another format? Having issues loading an existing format? Contact us
Advertisement - Login to hide

Notes

Generated

Route

EGLC GG603 LSGG

ID Type Via Altitude Latitude Longitude Leg Dist Tot Dist Heading (true) Name
O EGLC APT - 0 ft / 0 m 51.50558˚ 0.04414˚ - 0 nm - -
GG603 FIX - 0 ft / 0 m 46.26861˚ 6.05778˚ 393 nm 393 nm 141° / 145° -
O LSGG APT - 0 ft / 0 m 46.23482˚ 6.09953˚ 2 nm 396 nm 139° / 140° -

Altitude Profile

Advertisement - Login to hide

Weather


0- 5 10 15 20 25 30 35+ Temperature / ° C

Clouds and Precipitation
Forecast for 2017-12-11 00:00 UTC. Updated an hour ago

Ground ~20,000 ft ~40,000 ft Winds

EGLC

Details ICAO EGLC (LCY)
Name London City
Region United Kingdom
Timezone Europe/London (UTC+0.0)
Stats Elevation 19 ft / 6 m (AMSL)
Location 51.505231° 0.055175°
Runways 1
Magnetic Variation 0.386° W

METAR

EGLC 110020Z AUTO 09006KT 3000 HZ OVC002 02/01 Q0982

Decode

TAF

Not found

Departure Runways

ID Width Length Bearing (true) Bearing (mag) Surface Threshold Offset Overrun Length
09 98 ft / 30 m 4,931 ft / 1,503 m 92.89° 93.28° Concrete 322 ft / 98 m 164 ft / 50 m
27 98 ft / 30 m 4,931 ft / 1,503 m 272.91° 273.30° Concrete 243 ft / 74 m 279 ft / 85 m

LSGG

Details ICAO LSGG (GVA)
Name Geneva
Region Switzerland
Timezone Europe/Zurich (UTC+1.0)
Stats Elevation 1,410 ft / 430 m (AMSL)
Location 46.237755° 6.106173°
Runways 2
Magnetic Variation 1.736° E

METAR

LSGG 110020Z AUTO 26004KT 230V290 9999 -RA BKN048 07/07 Q0989 NOSIG

Decode

TAF

TAF TAF LSGG 102325Z 1100/1206 23010KT 8000 -RA FEW010 BKN030 TX08/1114Z TN06/1106Z TN03/1206Z BECMG 1102/1105 VRB03KT BECMG 1112/1114 23012KT TEMPO 1110/1121 23015G25KT 4500 RA

Decode

Destination Runways

ID Width Length Bearing (true) Bearing (mag) Surface Threshold Offset Overrun Length
05 180 ft / 55 m 12,796 ft / 3,900 m 45.43° 43.69° Concrete 1,079 ft / 329 m 66 ft / 20 m
05L 98 ft / 30 m 2,701 ft / 823 m 45.44° 43.70° Grass 610 ft / 186 m 0 ft / 0 m
23 180 ft / 55 m 12,796 ft / 3,900 m 225.45° 223.71° Concrete 0 ft / 0 m 66 ft / 20 m
23R 98 ft / 30 m 2,701 ft / 823 m 225.45° 223.71° Grass 997 ft / 304 m 0 ft / 0 m

Approach Navaids

Runway Type Ident Frequency Range Bearing (true) Bearing (mag) Slope Elevation
05 Localiser INE 110.90 MHz 18 nm / 33 km 45.45° 43.72° - 1,407 ft / 429 m (AMSL)
05 Glidescope INE 110.90 MHz 18 nm / 33 km 45.45° 43.72° 3.00° 1,460 ft / 445 m (AMSL)
05 DME INE 110.90 MHz 27 nm / 50 km - - - 1,460 ft / 445 m (AMSL)
23 Localiser ISW 109.90 MHz 20 nm / 37 km 225.43° 223.69° - 1,363 ft / 415 m (AMSL)
23 Glidescope ISW 109.90 MHz 20 nm / 37 km 225.43° 223.69° 3.00° 1,384 ft / 422 m (AMSL)
23 DME ISW 109.90 MHz 30 nm / 56 km - - - 1,384 ft / 422 m (AMSL)

Popular Alternatives